Time;durP1;ratioP1;P1;durP2;ratioP2;P2;SDS_P1;SDS_P2;PMS_P1;PMS_P2;Temp;Humidity;BMP_temperature;BMP_pressure;BME280_temperature;BME280_humidity;BME280_pressure;Samples;Min_cycle;Max_cycle;Signal;HPM_P1;HPM_P2
2021/12/14 00:01:54;;;;;;;14.83;11.37;;;;;;;;;;5059763;28;20485;-80
2021/12/14 00:04:24;;;;;;;15.43;11.27;;;;;;;;;;5058473;28;20508;-82
2021/12/14 00:06:51;;;;;;;14.33;12.33;;;;;;;;;;5057759;28;20434;-80
2021/12/14 00:09:24;;;;;;;17.53;11.60;;;;;;;;;;5057132;28;20441;-81
2021/12/14 00:12:09;;;;;;;15.53;12.10;;;;;;;;;;5054588;28;20454;-82
2021/12/14 00:17:23;;;;;;;13.37;11.43;;;;;;;;;;5055110;28;21004;-81
2021/12/14 00:19:51;;;;;;;15.27;12.07;;;;;;;;;;5057618;28;20811;-80
2021/12/14 00:22:30;;;;;;;16.93;11.40;;;;;;;;;;5056710;28;20815;-82
2021/12/14 00:24:57;;;;;;;16.23;12.25;;;;;;;;;;5055669;28;20469;-80
2021/12/14 00:27:26;;;;;;;15.93;12.30;;;;;;;;;;5054472;28;20453;-82
2021/12/14 00:29:55;;;;;;;17.20;12.70;;;;;;;;;;5053587;28;20449;-80
2021/12/14 00:32:25;;;;;;;14.00;12.32;;;;;;;;;;5054950;28;20811;-81
2021/12/14 00:34:53;;;;;;;16.50;13.17;;;;;;;;;;5054907;28;20246;-81
2021/12/14 00:37:22;;;;;;;12.77;11.40;;;;;;;;;;5060590;28;20438;-81
2021/12/14 00:39:51;;;;;;;16.33;11.43;;;;;;;;;;5062559;28;20447;-81
2021/12/14 00:42:18;;;;;;;16.80;12.07;;;;;;;;;;5059578;28;20795;-81
2021/12/14 00:44:48;;;;;;;18.20;12.40;;;;;;;;;;5058858;28;20462;-82
2021/12/14 00:47:15;;;;;;;12.67;11.27;;;;;;;;;;5058196;28;20430;-82
2021/12/14 00:49:42;;;;;;;14.37;10.60;;;;;;;;;;5059497;28;20430;-80
2021/12/14 00:52:11;;;;;;;16.30;11.70;;;;;;;;;;5059941;28;20438;-81
2021/12/14 00:54:38;;;;;;;14.60;10.50;;;;;;;;;;5059262;28;20494;-81
2021/12/14 00:57:06;;;;;;;13.87;10.83;;;;;;;;;;5059488;28;20474;-82
2021/12/14 00:59:34;;;;;;;15.00;11.13;;;;;;;;;;5060329;28;20434;-82
2021/12/14 01:02:05;;;;;;;14.93;11.40;;;;;;;;;;5059118;28;20488;-81
2021/12/14 01:04:38;;;;;;;12.73;10.40;;;;;;;;;;5058902;28;20450;-81
2021/12/14 01:07:06;;;;;;;13.10;10.80;;;;;;;;;;5058884;28;20206;-82
2021/12/14 01:09:36;;;;;;;17.13;10.47;;;;;;;;;;5057628;28;20446;-80
2021/12/14 01:12:08;;;;;;;12.23;9.63;;;;;;;;;;5058315;28;20434;-81
2021/12/14 01:14:41;;;;;;;14.80;11.30;;;;;;;;;;5058643;28;20453;-83
2021/12/14 01:17:13;;;;;;;14.07;10.10;;;;;;;;;;5057996;28;20520;-82
2021/12/14 01:19:42;;;;;;;13.90;11.13;;;;;;;;;;5057800;28;20449;-82
2021/12/14 01:22:19;;;;;;;15.37;10.77;;;;;;;;;;5057694;28;20551;-81
2021/12/14 01:27:38;;;;;;;15.10;11.57;;;;;;;;;;5057627;28;20456;-81
2021/12/14 01:30:07;;;;;;;17.13;11.43;;;;;;;;;;5057051;28;20587;-82
2021/12/14 01:32:40;;;;;;;15.23;10.13;;;;;;;;;;5056906;28;20940;-82
2021/12/14 01:35:12;;;;;;;17.63;12.47;;;;;;;;;;5057512;28;20465;-82
2021/12/14 01:37:45;;;;;;;15.97;10.90;;;;;;;;;;5056730;28;20450;-83
2021/12/14 01:40:19;;;;;;;14.00;10.30;;;;;;;;;;5057234;28;20848;-82
2021/12/14 01:42:47;;;;;;;13.90;10.50;;;;;;;;;;5057795;28;20452;-81
2021/12/14 01:45:16;;;;;;;13.80;11.07;;;;;;;;;;5058121;28;21044;-81
2021/12/14 01:47:47;;;;;;;15.53;10.40;;;;;;;;;;5058194;28;20208;-81
2021/12/14 01:50:16;;;;;;;14.07;9.73;;;;;;;;;;5058306;28;20449;-82
2021/12/14 01:52:43;;;;;;;14.18;10.38;;;;;;;;;;5058805;28;20449;-82
2021/12/14 01:55:12;;;;;;;13.10;9.87;;;;;;;;;;5062019;28;20246;-82
2021/12/14 01:57:39;;;;;;;12.57;10.33;;;;;;;;;;5062653;28;20673;-82
2021/12/14 02:00:08;;;;;;;13.87;10.07;;;;;;;;;;5070964;28;20442;-82
2021/12/14 02:02:42;;;;;;;14.63;10.40;;;;;;;;;;5069434;28;20450;-82
2021/12/14 02:05:19;;;;;;;15.43;11.47;;;;;;;;;;5064928;28;20493;-81
2021/12/14 02:07:47;;;;;;;13.60;10.43;;;;;;;;;;5068069;28;20456;-82
2021/12/14 02:10:16;;;;;;;13.63;10.90;;;;;;;;;;5068123;28;20442;-81
2021/12/14 02:12:53;;;;;;;16.27;10.73;;;;;;;;;;5064568;28;20437;-81
2021/12/14 02:15:22;;;;;;;16.30;10.20;;;;;;;;;;5061557;28;20488;-82
2021/12/14 02:17:51;;;;;;;18.87;11.80;;;;;;;;;;5061455;28;20448;-82
2021/12/14 02:20:25;;;;;;;15.80;11.53;;;;;;;;;;5062222;28;20449;-83
2021/12/14 02:22:57;;;;;;;17.10;12.23;;;;;;;;;;5062349;28;20823;-82
2021/12/14 02:25:24;;;;;;;15.50;10.87;;;;;;;;;;5063911;28;20228;-82
2021/12/14 02:27:53;;;;;;;13.70;10.60;;;;;;;;;;5061874;28;20446;-82
2021/12/14 02:30:22;;;;;;;14.80;11.50;;;;;;;;;;5061421;28;20472;-83
2021/12/14 02:32:49;;;;;;;17.38;11.18;;;;;;;;;;5061352;28;20214;-82
2021/12/14 02:35:18;;;;;;;16.10;11.50;;;;;;;;;;5061425;28;20231;-81
2021/12/14 02:37:46;;;;;;;17.10;11.20;;;;;;;;;;5062812;28;20464;-81
2021/12/14 02:40:20;;;;;;;14.60;11.70;;;;;;;;;;5059848;28;20463;-82
2021/12/14 02:42:48;;;;;;;15.80;12.07;;;;;;;;;;5059911;28;20473;-81
2021/12/14 02:45:15;;;;;;;17.20;11.33;;;;;;;;;;5059311;28;20450;-82
2021/12/14 02:47:42;;;;;;;15.70;11.80;;;;;;;;;;5059645;28;20430;-82
2021/12/14 02:50:10;;;;;;;15.90;11.27;;;;;;;;;;5060686;28;20453;-81
2021/12/14 02:52:37;;;;;;;16.37;10.93;;;;;;;;;;5059623;28;20452;-82
2021/12/14 02:55:11;;;;;;;17.90;11.23;;;;;;;;;;5060421;28;20473;-82
2021/12/14 02:57:42;;;;;;;17.83;11.90;;;;;;;;;;5060690;28;20525;-82
2021/12/14 03:00:11;;;;;;;18.03;11.67;;;;;;;;;;5060526;28;20442;-82
2021/12/14 03:02:38;;;;;;;14.07;10.90;;;;;;;;;;5056963;28;20920;-82
2021/12/14 03:05:08;;;;;;;17.77;11.17;;;;;;;;;;5049507;28;20512;-82
2021/12/14 03:07:38;;;;;;;15.90;11.30;;;;;;;;;;5041368;28;20460;-83
2021/12/14 03:10:19;;;;;;;17.20;12.48;;;;;;;;;;5040894;28;20482;-82
2021/12/14 03:12:49;;;;;;;15.10;11.30;;;;;;;;;;5039500;28;20188;-81
2021/12/14 03:15:17;;;;;;;14.07;11.20;;;;;;;;;;5038401;28;20479;-81
2021/12/14 03:17:45;;;;;;;17.67;11.38;;;;;;;;;;5038457;28;20454;-81
2021/12/14 03:20:13;;;;;;;14.80;10.83;;;;;;;;;;5037756;28;20204;-82
2021/12/14 03:22:42;;;;;;;18.07;12.37;;;;;;;;;;5037424;28;20483;-82
2021/12/14 03:25:13;;;;;;;15.20;11.50;;;;;;;;;;5033775;28;21005;-82
2021/12/14 03:27:40;;;;;;;16.60;12.00;;;;;;;;;;5034313;28;20213;-82
2021/12/14 03:30:19;;;;;;;13.13;9.57;;;;;;;;;;5034509;28;20564;-82
2021/12/14 03:32:46;;;;;;;13.80;10.37;;;;;;;;;;5038883;28;20195;-82
2021/12/14 03:35:13;;;;;;;13.73;8.97;;;;;;;;;;5037761;28;20520;-82
2021/12/14 03:37:40;;;;;;;12.40;8.83;;;;;;;;;;5037629;28;20444;-82
2021/12/14 03:40:08;;;;;;;10.53;8.20;;;;;;;;;;5036549;28;20451;-82
2021/12/14 03:42:37;;;;;;;12.87;8.43;;;;;;;;;;5034474;28;20470;-82
2021/12/14 03:45:06;;;;;;;11.73;7.97;;;;;;;;;;5033892;28;20912;-82
2021/12/14 03:47:37;;;;;;;11.77;8.50;;;;;;;;;;5035181;28;20431;-83
2021/12/14 03:50:06;;;;;;;9.80;7.10;;;;;;;;;;5033579;28;20434;-83
2021/12/14 03:52:35;;;;;;;11.83;8.50;;;;;;;;;;5033449;28;20553;-82
2021/12/14 03:55:05;;;;;;;12.27;8.30;;;;;;;;;;5001665;28;1034017;-82
2021/12/14 03:57:32;;;;;;;10.40;7.60;;;;;;;;;;5040014;28;20431;-82
2021/12/14 03:59:59;;;;;;;9.50;7.78;;;;;;;;;;5037783;28;20442;-81
2021/12/14 04:02:26;;;;;;;10.40;7.87;;;;;;;;;;5050023;28;20248;-83
2021/12/14 04:05:01;;;;;;;11.65;7.30;;;;;;;;;;5057714;28;20460;-82
2021/12/14 04:07:28;;;;;;;12.40;8.10;;;;;;;;;;5060673;28;20199;-83
2021/12/14 04:09:56;;;;;;;9.27;6.73;;;;;;;;;;5059667;28;20449;-82
2021/12/14 04:12:23;;;;;;;10.37;7.53;;;;;;;;;;5059002;28;20447;-82
2021/12/14 04:14:51;;;;;;;10.67;7.33;;;;;;;;;;5060838;28;20470;-82
2021/12/14 04:17:19;;;;;;;9.47;7.37;;;;;;;;;;5060249;28;20438;-82
2021/12/14 04:19:46;;;;;;;9.27;6.37;;;;;;;;;;5059899;28;20826;-83
2021/12/14 04:22:16;;;;;;;10.47;6.97;;;;;;;;;;5059312;28;20950;-81
2021/12/14 04:24:44;;;;;;;11.80;7.50;;;;;;;;;;5057842;28;20466;-82
2021/12/14 04:27:13;;;;;;;8.63;6.93;;;;;;;;;;5060448;28;20441;-82
2021/12/14 04:29:41;;;;;;;12.18;7.07;;;;;;;;;;5069666;28;20433;-82
2021/12/14 04:32:10;;;;;;;9.60;7.30;;;;;;;;;;5073029;28;20483;-82
2021/12/14 04:34:37;;;;;;;9.77;6.65;;;;;;;;;;5068022;28;20469;-81
2021/12/14 04:37:05;;;;;;;9.00;7.10;;;;;;;;;;5068250;28;20195;-81
2021/12/14 04:39:40;;;;;;;12.57;7.53;;;;;;;;;;5069493;28;20528;-82
2021/12/14 04:53:28;;;;;;;10.60;6.80;;;;;;;;;;5058934;28;20465;-82
2021/12/14 04:55:58;;;;;;;8.17;6.80;;;;;;;;;;5057734;28;21020;-83
2021/12/14 04:58:28;;;;;;;6.90;5.90;;;;;;;;;;5058640;28;20794;-82
2021/12/14 05:00:55;;;;;;;6.90;6.17;;;;;;;;;;5059097;28;20737;-83
2021/12/14 05:03:24;;;;;;;9.13;6.10;;;;;;;;;;5058179;28;20495;-81
2021/12/14 05:06:07;;;;;;;7.13;6.30;;;;;;;;;;5058808;28;20977;-82
2021/12/14 05:11:22;;;;;;;14.30;8.93;;;;;;;;;;5058270;28;20425;-81
2021/12/14 05:13:51;;;;;;;15.93;9.00;;;;;;;;;;5058106;28;20491;-83
2021/12/14 05:16:20;;;;;;;14.43;8.93;;;;;;;;;;5057840;28;20937;-82
2021/12/14 05:18:47;;;;;;;15.60;9.43;;;;;;;;;;5057867;28;20199;-83
2021/12/14 05:21:15;;;;;;;15.67;10.00;;;;;;;;;;5058456;28;20967;-82
2021/12/14 05:23:42;;;;;;;13.37;9.43;;;;;;;;;;5057890;28;20624;-82
2021/12/14 05:26:09;;;;;;;15.67;10.30;;;;;;;;;;5059087;28;20462;-83
2021/12/14 05:28:37;;;;;;;18.23;9.63;;;;;;;;;;5058823;28;20453;-82
2021/12/14 05:31:04;;;;;;;18.33;11.40;;;;;;;;;;5060329;28;20442;-82
2021/12/14 05:33:33;;;;;;;14.87;10.90;;;;;;;;;;5069479;28;20442;-82
2021/12/14 05:36:03;;;;;;;14.23;9.10;;;;;;;;;;5073572;28;20491;-81
2021/12/14 05:38:43;;;;;;;10.60;8.23;;;;;;;;;;5059989;28;20454;-81
2021/12/14 05:43:06;;;;;;;9.50;6.77;;;;;;;;;;5072699;28;20416;-81
2021/12/14 05:43:58;;;;;;;13.40;8.07;;;;;;;;;;5073943;28;20429;-83
2021/12/14 05:46:26;;;;;;;8.03;6.07;;;;;;;;;;5061861;28;20429;-82
2021/12/14 05:48:57;;;;;;;7.43;5.40;;;;;;;;;;5057295;28;20960;-82
2021/12/14 05:51:24;;;;;;;8.20;5.90;;;;;;;;;;5073043;28;20416;-81
2021/12/14 05:53:51;;;;;;;7.83;6.73;;;;;;;;;;5076665;28;20411;-82
2021/12/14 05:56:19;;;;;;;8.10;6.17;;;;;;;;;;5076359;28;20427;-81
2021/12/14 05:58:47;;;;;;;7.10;6.23;;;;;;;;;;5075832;28;20490;-81
2021/12/14 06:01:17;;;;;;;6.45;5.55;;;;;;;;;;5076225;28;20516;-81
2021/12/14 06:03:46;;;;;;;6.47;5.50;;;;;;;;;;5072823;28;20207;-82
2021/12/14 06:06:20;;;;;;;7.00;5.73;;;;;;;;;;5057039;28;20546;-81
2021/12/14 06:08:47;;;;;;;6.97;6.27;;;;;;;;;;5056207;28;20449;-83
2021/12/14 06:11:21;;;;;;;6.80;6.07;;;;;;;;;;5067787;28;20410;-82
2021/12/14 06:13:48;;;;;;;8.03;6.37;;;;;;;;;;5062987;28;20472;-82
2021/12/14 06:16:24;;;;;;;7.10;6.10;;;;;;;;;;5056980;28;20458;-82
2021/12/14 06:18:52;;;;;;;10.23;7.33;;;;;;;;;;5057375;28;20445;-80
2021/12/14 06:21:29;;;;;;;6.77;5.53;;;;;;;;;;5058076;28;20458;-82
2021/12/14 06:24:01;;;;;;;6.90;6.17;;;;;;;;;;5059938;28;20497;-81
2021/12/14 06:26:33;;;;;;;6.35;5.75;;;;;;;;;;5073633;28;20437;-82
2021/12/14 06:29:04;;;;;;;7.70;5.75;;;;;;;;;;5073394;28;20238;-82
2021/12/14 06:31:33;;;;;;;6.90;5.80;;;;;;;;;;5075662;28;20179;-81
2021/12/14 06:34:11;;;;;;;9.23;7.38;;;;;;;;;;5075012;28;20444;-82
2021/12/14 06:37:02;;;;;;;6.27;5.60;;;;;;;;;;5075980;28;20175;-81
2021/12/14 06:39:29;;;;;;;7.77;6.10;;;;;;;;;;5077040;28;20505;-82
2021/12/14 06:42:04;;;;;;;8.07;6.33;;;;;;;;;;5061657;28;20998;-83
2021/12/14 06:44:31;;;;;;;7.53;5.65;;;;;;;;;;5073298;28;20477;-82
2021/12/14 06:47:00;;;;;;;7.77;6.50;;;;;;;;;;5078960;28;20199;-83
2021/12/14 06:49:27;;;;;;;8.15;7.18;;;;;;;;;;5061646;28;20437;-82
2021/12/14 06:51:56;;;;;;;9.20;8.30;;;;;;;;;;5056310;28;20195;-82
2021/12/14 06:54:24;;;;;;;7.23;6.50;;;;;;;;;;5057664;28;20515;-81
2021/12/14 06:56:53;;;;;;;8.90;6.60;;;;;;;;;;5064294;28;20457;-82
2021/12/14 06:59:23;;;;;;;7.30;6.20;;;;;;;;;;5063058;28;20434;-82
2021/12/14 07:01:52;;;;;;;7.07;6.30;;;;;;;;;;5066307;28;20437;-82
2021/12/14 07:04:23;;;;;;;7.55;6.03;;;;;;;;;;5074792;28;20430;-81
2021/12/14 07:06:51;;;;;;;7.75;6.85;;;;;;;;;;5076586;28;20167;-82
2021/12/14 07:09:19;;;;;;;9.60;6.80;;;;;;;;;;5077715;28;20186;-81
2021/12/14 07:11:48;;;;;;;7.50;6.43;;;;;;;;;;5072799;28;20438;-81
2021/12/14 07:14:22;;;;;;;6.93;6.13;;;;;;;;;;5076919;28;20457;-82
2021/12/14 07:16:49;;;;;;;6.97;6.27;;;;;;;;;;5062460;28;20465;-82
2021/12/14 07:19:16;;;;;;;7.30;6.60;;;;;;;;;;5059320;28;20449;-82
2021/12/14 07:21:45;;;;;;;11.97;7.97;;;;;;;;;;5059894;28;20454;-82
2021/12/14 07:24:30;;;;;;;13.43;9.57;;;;;;;;;;5061883;28;20519;-82
2021/12/14 07:27:12;;;;;;;11.83;8.80;;;;;;;;;;5061635;28;20449;-83
2021/12/14 07:29:39;;;;;;;16.50;8.57;;;;;;;;;;5061929;28;20426;-82
2021/12/14 07:32:06;;;;;;;11.23;9.10;;;;;;;;;;5062121;28;20462;-82
2021/12/14 07:34:33;;;;;;;12.87;9.50;;;;;;;;;;5060219;28;20481;-82
2021/12/14 07:37:02;;;;;;;11.67;9.30;;;;;;;;;;5059400;28;20597;-82
2021/12/14 07:39:29;;;;;;;15.00;8.70;;;;;;;;;;5062103;28;20500;-81
2021/12/14 07:41:58;;;;;;;10.73;8.90;;;;;;;;;;5059347;28;20441;-81
2021/12/14 07:44:26;;;;;;;11.60;9.87;;;;;;;;;;5059718;28;20470;-82
2021/12/14 07:46:55;;;;;;;13.70;10.13;;;;;;;;;;5061952;28;20440;-85
2021/12/14 07:49:24;;;;;;;13.70;9.98;;;;;;;;;;5060517;28;20452;-84
2021/12/14 07:51:53;;;;;;;12.43;9.23;;;;;;;;;;5060311;28;20199;-82
2021/12/14 07:54:23;;;;;;;12.85;9.35;;;;;;;;;;5059927;28;20469;-82
2021/12/14 07:56:51;;;;;;;10.53;8.70;;;;;;;;;;5060604;28;20223;-82
2021/12/14 07:59:23;;;;;;;9.70;8.00;;;;;;;;;;5061551;28;20434;-83
2021/12/14 08:01:51;;;;;;;9.97;7.93;;;;;;;;;;5055949;28;20537;-82
2021/12/14 08:04:18;;;;;;;11.53;9.30;;;;;;;;;;5039255;28;20483;-82
2021/12/14 08:06:48;;;;;;;10.23;7.97;;;;;;;;;;5040378;28;20740;-82
2021/12/14 08:09:33;;;;;;;10.03;8.03;;;;;;;;;;5039824;28;20537;-82
2021/12/14 08:12:01;;;;;;;10.10;7.70;;;;;;;;;;5039829;28;20429;-81
2021/12/14 08:14:30;;;;;;;13.33;8.50;;;;;;;;;;5038980;28;20462;-82
2021/12/14 08:16:59;;;;;;;9.97;8.13;;;;;;;;;;5043913;28;20442;-81
2021/12/14 08:19:30;;;;;;;10.67;7.80;;;;;;;;;;5040369;28;20455;-82
2021/12/14 08:21:58;;;;;;;11.90;10.37;;;;;;;;;;5041445;28;20965;-82
2021/12/14 08:24:25;;;;;;;11.10;9.37;;;;;;;;;;5040432;28;20489;-81
2021/12/14 08:26:55;;;;;;;11.10;8.53;;;;;;;;;;5040222;28;20442;-81
2021/12/14 08:29:25;;;;;;;11.77;8.87;;;;;;;;;;5040121;28;20446;-82
2021/12/14 08:31:54;;;;;;;9.70;7.60;;;;;;;;;;5040706;28;20442;-81
2021/12/14 08:34:22;;;;;;;9.87;8.17;;;;;;;;;;5049417;28;20469;-82
2021/12/14 08:36:51;;;;;;;19.67;16.50;;;;;;;;;;5061966;28;20445;-81
2021/12/14 08:39:20;;;;;;;17.50;14.13;;;;;;;;;;5061842;28;20940;-83
2021/12/14 08:41:52;;;;;;;19.97;16.97;;;;;;;;;;5071471;28;20456;-82
2021/12/14 08:44:33;;;;;;;10.67;8.80;;;;;;;;;;5077383;28;20608;-82
2021/12/14 08:47:00;;;;;;;10.50;7.50;;;;;;;;;;5077555;28;20434;-83
2021/12/14 08:49:27;;;;;;;9.00;7.70;;;;;;;;;;5077462;28;20465;-80
2021/12/14 08:51:55;;;;;;;10.43;7.82;;;;;;;;;;5077400;28;20437;-82
2021/12/14 08:54:25;;;;;;;10.33;8.70;;;;;;;;;;5077106;28;20203;-81
2021/12/14 08:56:57;;;;;;;8.80;7.60;;;;;;;;;;5077349;28;20441;-81
2021/12/14 08:59:26;;;;;;;10.63;8.50;;;;;;;;;;5076995;28;20461;-81
2021/12/14 09:01:53;;;;;;;8.80;7.63;;;;;;;;;;5076562;28;20422;-81
2021/12/14 09:04:22;;;;;;;11.50;8.00;;;;;;;;;;5075912;28;20218;-80
2021/12/14 09:06:51;;;;;;;11.70;8.03;;;;;;;;;;5076219;28;20432;-81
2021/12/14 09:09:21;;;;;;;9.57;8.03;;;;;;;;;;5076621;28;20437;-82
2021/12/14 09:11:50;;;;;;;8.63;7.73;;;;;;;;;;5076540;28;20434;-84
2021/12/14 09:14:17;;;;;;;11.47;7.50;;;;;;;;;;5077090;28;20457;-82
2021/12/14 09:16:49;;;;;;;7.97;7.10;;;;;;;;;;5076573;28;20426;-84
2021/12/14 09:19:22;;;;;;;9.10;8.20;;;;;;;;;;5073907;28;20422;-83
2021/12/14 09:21:51;;;;;;;9.17;8.17;;;;;;;;;;5072761;28;20464;-83
2021/12/14 09:24:21;;;;;;;8.00;7.30;;;;;;;;;;5065105;28;20482;-84
2021/12/14 09:26:49;;;;;;;8.67;7.70;;;;;;;;;;5060363;28;20451;-84
2021/12/14 09:29:18;;;;;;;9.30;8.30;;;;;;;;;;5063973;28;20850;-84
2021/12/14 09:31:49;;;;;;;10.13;7.90;;;;;;;;;;5063959;28;20446;-84
2021/12/14 09:34:17;;;;;;;9.30;8.27;;;;;;;;;;5064440;28;20226;-83
2021/12/14 09:36:44;;;;;;;8.30;7.35;;;;;;;;;;5064477;28;20529;-83
2021/12/14 09:39:13;;;;;;;7.90;6.80;;;;;;;;;;5063832;28;20705;-83
2021/12/14 09:41:41;;;;;;;9.40;8.50;;;;;;;;;;5061367;28;20237;-83
2021/12/14 09:44:11;;;;;;;10.07;8.18;;;;;;;;;;5060228;28;20527;-83
2021/12/14 09:46:39;;;;;;;8.43;7.60;;;;;;;;;;5059858;28;20186;-84
2021/12/14 09:49:10;;;;;;;8.37;7.57;;;;;;;;;;5061399;28;20441;-81
2021/12/14 09:51:41;;;;;;;8.90;7.57;;;;;;;;;;5058178;28;20447;-83
2021/12/14 09:54:10;;;;;;;8.27;7.10;;;;;;;;;;5057785;28;20494;-82
2021/12/14 09:56:40;;;;;;;10.03;7.90;;;;;;;;;;5061407;28;20461;-82
2021/12/14 09:59:08;;;;;;;9.10;8.20;;;;;;;;;;5054070;28;20429;-81
2021/12/14 10:01:37;;;;;;;9.80;8.37;;;;;;;;;;5056079;28;20440;-82
2021/12/14 10:04:06;;;;;;;10.70;8.33;;;;;;;;;;5058978;28;20504;-81
2021/12/14 10:06:35;;;;;;;11.13;8.30;;;;;;;;;;5058315;28;20804;-82
2021/12/14 10:09:05;;;;;;;10.90;9.80;;;;;;;;;;5060395;28;20450;-81
2021/12/14 10:11:43;;;;;;;9.93;8.40;;;;;;;;;;5064524;28;20202;-83
2021/12/14 10:14:12;;;;;;;9.60;8.60;;;;;;;;;;5058255;28;20449;-82
2021/12/14 10:16:39;;;;;;;11.23;9.90;;;;;;;;;;5061419;28;20591;-83
2021/12/14 10:19:08;;;;;;;10.53;9.00;;;;;;;;;;5061813;28;20427;-81
2021/12/14 10:21:39;;;;;;;10.47;9.37;;;;;;;;;;5063031;28;20438;-83
2021/12/14 10:24:07;;;;;;;12.00;9.77;;;;;;;;;;5060191;28;20481;-82
2021/12/14 10:26:36;;;;;;;11.30;9.10;;;;;;;;;;5061008;28;21006;-83
2021/12/14 10:29:04;;;;;;;10.35;9.23;;;;;;;;;;5061738;28;20460;-82
2021/12/14 10:31:36;;;;;;;12.40;10.07;;;;;;;;;;5060737;28;20242;-82
2021/12/14 10:34:05;;;;;;;11.87;9.47;;;;;;;;;;5062229;28;20430;-83
2021/12/14 10:36:36;;;;;;;12.00;9.30;;;;;;;;;;5067162;28;20434;-83
2021/12/14 10:39:21;;;;;;;11.03;8.90;;;;;;;;;;5058627;28;20450;-83
2021/12/14 10:44:40;;;;;;;11.80;9.90;;;;;;;;;;5059636;28;20480;-82
2021/12/14 10:47:07;;;;;;;10.80;8.90;;;;;;;;;;5060405;28;20461;-80
2021/12/14 10:49:34;;;;;;;12.87;9.50;;;;;;;;;;5058772;28;20476;-81
2021/12/14 10:52:04;;;;;;;10.77;9.40;;;;;;;;;;5056963;28;20431;-81
2021/12/14 10:54:34;;;;;;;10.20;9.10;;;;;;;;;;5057105;28;20462;-81
2021/12/14 10:57:04;;;;;;;12.30;10.18;;;;;;;;;;5057394;28;20451;-82
2021/12/14 10:59:32;;;;;;;14.20;9.80;;;;;;;;;;5057711;28;20196;-81
2021/12/14 11:01:59;;;;;;;13.77;9.80;;;;;;;;;;5057638;28;20492;-81
2021/12/14 11:04:34;;;;;;;11.70;9.20;;;;;;;;;;5056510;28;20493;-81
2021/12/14 11:07:05;;;;;;;10.97;9.87;;;;;;;;;;5057815;28;20433;-81
2021/12/14 11:09:45;;;;;;;12.77;10.30;;;;;;;;;;5057412;28;20508;-82
2021/12/14 11:12:17;;;;;;;14.50;10.30;;;;;;;;;;5052904;28;20804;-80
2021/12/14 11:14:45;;;;;;;10.30;9.30;;;;;;;;;;5059753;28;20877;-82
2021/12/14 11:20:00;;;;;;;13.70;9.20;;;;;;;;;;5081157;28;20535;-82
2021/12/14 11:22:29;;;;;;;17.50;10.90;;;;;;;;;;5081228;28;20442;-80
2021/12/14 11:24:59;;;;;;;16.00;9.20;;;;;;;;;;5078565;28;20494;-82
2021/12/14 11:27:29;;;;;;;10.07;8.93;;;;;;;;;;5067219;28;20191;-82
2021/12/14 11:30:07;;;;;;;13.07;9.67;;;;;;;;;;5061358;28;20217;-82
2021/12/14 11:32:35;;;;;;;10.90;9.73;;;;;;;;;;5062151;28;20461;-82
2021/12/14 11:35:03;;;;;;;10.80;9.70;;;;;;;;;;5066599;28;20545;-81
2021/12/14 11:37:34;;;;;;;12.48;10.40;;;;;;;;;;5065083;28;20453;-81
2021/12/14 11:40:03;;;;;;;9.33;8.43;;;;;;;;;;5059455;28;20200;-82
2021/12/14 11:42:30;;;;;;;10.97;9.47;;;;;;;;;;5058776;28;20431;-80
2021/12/14 11:45:02;;;;;;;12.30;9.40;;;;;;;;;;5057654;28;20486;-81
2021/12/14 11:47:46;;;;;;;9.55;8.63;;;;;;;;;;5056810;28;20530;-81
2021/12/14 11:50:16;;;;;;;10.33;9.23;;;;;;;;;;5057365;28;20186;-81
2021/12/14 11:52:50;;;;;;;14.73;9.33;;;;;;;;;;5056412;28;20458;-81
2021/12/14 11:55:23;;;;;;;13.87;10.63;;;;;;;;;;5056405;28;20557;-82
2021/12/14 11:57:50;;;;;;;14.27;9.37;;;;;;;;;;5056053;28;20869;-81
2021/12/14 12:00:21;;;;;;;11.93;10.00;;;;;;;;;;5056863;28;20495;-81
2021/12/14 12:02:48;;;;;;;11.00;8.98;;;;;;;;;;5055384;28;20439;-82
2021/12/14 12:05:17;;;;;;;11.37;10.00;;;;;;;;;;5055941;28;20229;-81
2021/12/14 12:10:38;;;;;;;12.20;10.57;;;;;;;;;;5054699;28;20474;-82
2021/12/14 12:13:05;;;;;;;16.00;11.00;;;;;;;;;;5055575;28;20456;-82
2021/12/14 12:15:38;;;;;;;13.43;10.70;;;;;;;;;;5057215;28;20834;-82
2021/12/14 12:18:05;;;;;;;13.90;10.48;;;;;;;;;;5057796;28;20454;-81
2021/12/14 12:20:33;;;;;;;12.17;10.83;;;;;;;;;;5057606;28;20206;-81
2021/12/14 12:23:02;;;;;;;11.98;10.65;;;;;;;;;;5056434;28;20436;-83
2021/12/14 12:25:30;;;;;;;11.47;10.37;;;;;;;;;;5056292;28;20697;-82
2021/12/14 12:28:00;;;;;;;11.70;10.60;;;;;;;;;;5056409;28;20449;-81
2021/12/14 12:30:43;;;;;;;12.83;10.93;;;;;;;;;;5057162;28;21229;-82
2021/12/14 12:33:15;;;;;;;11.57;10.43;;;;;;;;;;5057582;28;20478;-83
2021/12/14 12:35:44;;;;;;;12.40;11.10;;;;;;;;;;5059501;28;20463;-82
2021/12/14 12:38:25;;;;;;;11.57;10.37;;;;;;;;;;5061019;28;20452;-81
2021/12/14 12:40:54;;;;;;;12.68;9.98;;;;;;;;;;5068867;28;20789;-81
2021/12/14 12:43:27;;;;;;;11.87;10.20;;;;;;;;;;5071769;28;20206;-81
2021/12/14 12:45:58;;;;;;;12.40;10.10;;;;;;;;;;5064062;28;20473;-81
2021/12/14 12:48:38;;;;;;;12.30;11.10;;;;;;;;;;5073724;28;20458;-82
2021/12/14 12:51:06;;;;;;;11.07;10.10;;;;;;;;;;5075259;28;20449;-82
2021/12/14 12:53:33;;;;;;;11.88;10.65;;;;;;;;;;5063220;28;20474;-82
2021/12/14 12:56:04;;;;;;;10.63;9.73;;;;;;;;;;5061033;28;20230;-82
2021/12/14 12:58:33;;;;;;;11.10;10.00;;;;;;;;;;5061046;28;20434;-82
2021/12/14 13:01:00;;;;;;;11.10;10.00;;;;;;;;;;5059118;28;20452;-81
2021/12/14 13:03:28;;;;;;;15.27;10.93;;;;;;;;;;5057672;28;20974;-82
2021/12/14 13:05:56;;;;;;;12.70;11.47;;;;;;;;;;5056960;28;20489;-82
2021/12/14 13:08:26;;;;;;;11.37;10.30;;;;;;;;;;5061724;28;20836;-81
2021/12/14 13:10:56;;;;;;;12.30;11.13;;;;;;;;;;5058803;28;20803;-82
2021/12/14 13:13:25;;;;;;;12.67;11.40;;;;;;;;;;5058527;28;20449;-82
2021/12/14 13:15:57;;;;;;;12.57;11.00;;;;;;;;;;5056228;28;20464;-82
2021/12/14 13:18:27;;;;;;;13.90;11.83;;;;;;;;;;5058393;28;20446;-81
2021/12/14 13:20:55;;;;;;;14.40;12.10;;;;;;;;;;5055970;28;20866;-81
2021/12/14 13:23:24;;;;;;;12.00;10.63;;;;;;;;;;5056867;28;20619;-82
2021/12/14 13:25:51;;;;;;;12.33;11.07;;;;;;;;;;5056123;28;20507;-82
2021/12/14 13:28:37;;;;;;;14.03;10.67;;;;;;;;;;5058607;28;20919;-81
2021/12/14 13:31:05;;;;;;;12.23;10.97;;;;;;;;;;5058196;28;20444;-82
2021/12/14 13:33:32;;;;;;;13.27;10.30;;;;;;;;;;5058253;28;20488;-81
2021/12/14 13:36:00;;;;;;;11.70;10.50;;;;;;;;;;5051694;28;20465;-82
2021/12/14 13:38:27;;;;;;;12.03;9.40;;;;;;;;;;5055460;28;20431;-82
2021/12/14 13:40:54;;;;;;;11.03;9.93;;;;;;;;;;5053973;28;20430;-82
2021/12/14 13:43:38;;;;;;;10.07;9.07;;;;;;;;;;5054310;28;20448;-82
2021/12/14 13:46:07;;;;;;;9.97;8.97;;;;;;;;;;5053690;28;20492;-80
2021/12/14 13:48:35;;;;;;;10.90;9.80;;;;;;;;;;5059387;28;20446;-82
2021/12/14 13:51:05;;;;;;;11.60;10.40;;;;;;;;;;5060074;28;20508;-83
2021/12/14 13:53:32;;;;;;;12.70;10.17;;;;;;;;;;5059142;28;20495;-82
2021/12/14 13:55:59;;;;;;;13.23;10.60;;;;;;;;;;5061511;28;20466;-82
2021/12/14 13:58:28;;;;;;;13.95;11.38;;;;;;;;;;5059551;28;20465;-82
2021/12/14 14:00:56;;;;;;;11.87;10.50;;;;;;;;;;5059713;28;20209;-82
2021/12/14 14:03:27;;;;;;;12.17;10.70;;;;;;;;;;5058669;28;20948;-82
2021/12/14 14:05:55;;;;;;;13.13;11.13;;;;;;;;;;5059492;28;20481;-82
2021/12/14 14:08:23;;;;;;;13.47;11.30;;;;;;;;;;5059372;28;20441;-81
2021/12/14 14:10:52;;;;;;;14.60;11.67;;;;;;;;;;5058372;28;20445;-82
2021/12/14 14:13:23;;;;;;;13.47;11.17;;;;;;;;;;5059117;28;20519;-82
2021/12/14 14:15:53;;;;;;;15.87;12.80;;;;;;;;;;5059299;28;20482;-83
2021/12/14 14:18:26;;;;;;;14.03;12.00;;;;;;;;;;5058603;28;20430;-81
2021/12/14 14:20:55;;;;;;;12.60;11.30;;;;;;;;;;5058806;28;20418;-81
2021/12/14 14:23:24;;;;;;;15.20;12.23;;;;;;;;;;5058062;28;20437;-82
2021/12/14 14:25:57;;;;;;;14.37;12.20;;;;;;;;;;5058146;28;20482;-82
2021/12/14 14:28:25;;;;;;;13.33;11.90;;;;;;;;;;5058628;28;20437;-83
2021/12/14 14:30:54;;;;;;;17.27;12.87;;;;;;;;;;5058324;28;20442;-82
2021/12/14 14:33:23;;;;;;;14.00;12.13;;;;;;;;;;5057561;28;20528;-82
2021/12/14 14:35:53;;;;;;;14.87;13.27;;;;;;;;;;5058173;28;20553;-81
2021/12/14 14:38:36;;;;;;;14.80;13.10;;;;;;;;;;5062095;28;20441;-82
2021/12/14 14:41:24;;;;;;;15.57;13.17;;;;;;;;;;5069739;28;20893;-83
2021/12/14 14:43:55;;;;;;;13.00;11.70;;;;;;;;;;5066359;28;20906;-82
2021/12/14 14:46:41;;;;;;;21.97;15.97;;;;;;;;;;5069787;28;20473;-82
2021/12/14 14:49:09;;;;;;;22.43;15.10;;;;;;;;;;5063304;28;20988;-82
2021/12/14 14:51:47;;;;;;;18.53;13.73;;;;;;;;;;5057040;28;20463;-82
2021/12/14 14:54:32;;;;;;;15.70;12.77;;;;;;;;;;5054529;28;20468;-82
2021/12/14 14:57:21;;;;;;;14.60;12.90;;;;;;;;;;5072862;28;20478;-82
2021/12/14 15:00:05;;;;;;;21.00;11.87;;;;;;;;;;5071959;28;20540;-82
2021/12/14 15:02:46;;;;;;;15.87;13.07;;;;;;;;;;5073304;28;20510;-83
2021/12/14 15:05:18;;;;;;;16.43;11.90;;;;;;;;;;5067803;28;20504;-83
2021/12/14 15:07:56;;;;;;;17.23;12.00;;;;;;;;;;5060358;28;20417;-82
2021/12/14 15:10:25;;;;;;;22.77;13.63;;;;;;;;;;5058596;28;20437;-81
2021/12/14 15:13:09;;;;;;;16.80;12.27;;;;;;;;;;5057929;28;20453;-82